Time;durP1;ratioP1;P1;durP2;ratioP2;P2;SDS_P1;SDS_P2;PMS_P1;PMS_P2;Temp;Humidity;BMP_temperature;BMP_pressure;BME280_temperature;BME280_humidity;BME280_pressure;Samples;Min_cycle;Max_cycle;Signal;HPM_P1;HPM_P2
2022/01/10 00:02:02;;;;;;;22.73;6.10;;;;;;;1.46;100.00;101082.41;5074639;28;20031;-71
2022/01/10 00:04:28;;;;;;;19.00;6.13;;;;;;;1.42;100.00;101086.75;5073924;28;20107;-72
2022/01/10 00:06:53;;;;;;;16.73;5.95;;;;;;;1.46;100.00;101090.22;5072209;28;20131;-73
2022/01/10 00:09:18;;;;;;;22.90;6.07;;;;;;;1.54;100.00;101092.81;5074586;28;20518;-72
2022/01/10 00:11:44;;;;;;;16.45;6.47;;;;;;;1.68;100.00;101095.38;5074626;28;20044;-72
2022/01/10 00:14:09;;;;;;;25.73;6.30;;;;;;;1.76;100.00;101104.88;5073922;28;20142;-71
2022/01/10 00:16:34;;;;;;;23.42;6.60;;;;;;;1.83;100.00;101095.31;5074106;28;20078;-72
2022/01/10 00:19:00;;;;;;;19.42;5.40;;;;;;;1.87;100.00;101102.25;5073916;28;20429;-74
2022/01/10 00:21:25;;;;;;;19.73;6.30;;;;;;;1.93;100.00;101099.59;5074464;28;20745;-74
2022/01/10 00:23:50;;;;;;;27.38;6.57;;;;;;;2.00;100.00;101104.81;5074287;28;20524;-72
2022/01/10 00:26:16;;;;;;;21.45;5.80;;;;;;;2.03;100.00;101117.84;5073941;28;20044;-73
2022/01/10 00:28:41;;;;;;;17.25;5.65;;;;;;;2.02;100.00;101116.09;5071970;28;20049;-75
2022/01/10 00:31:07;;;;;;;19.45;6.20;;;;;;;1.99;100.00;101108.28;5074125;28;20017;-71
2022/01/10 00:33:32;;;;;;;22.30;6.50;;;;;;;1.94;100.00;101110.91;5073984;28;20342;-72
2022/01/10 00:35:58;;;;;;;20.75;6.35;;;;;;;1.90;100.00;101123.09;5064156;28;20061;-73
2022/01/10 00:38:23;;;;;;;22.65;5.70;;;;;;;1.87;100.00;101114.44;5063151;28;20040;-71
2022/01/10 00:40:50;;;;;;;21.15;5.97;;;;;;;1.82;100.00;101109.22;5073495;28;21959;-71
2022/01/10 00:43:19;;;;;;;22.15;5.97;;;;;;;1.79;100.00;101119.66;5073657;28;20470;-73
2022/01/10 00:45:45;;;;;;;20.35;5.80;;;;;;;1.75;100.00;101128.41;5068397;28;20020;-74
2022/01/10 00:48:10;;;;;;;23.67;6.07;;;;;;;1.72;100.00;101136.25;5055763;28;20055;-72
2022/01/10 00:50:36;;;;;;;15.88;5.75;;;;;;;1.74;100.00;101150.16;5073327;28;20036;-72
2022/01/10 00:53:02;;;;;;;20.48;5.80;;;;;;;1.80;100.00;101151.03;5073649;28;20055;-72
2022/01/10 00:55:29;;;;;;;25.13;5.82;;;;;;;1.84;100.00;101148.38;5072395;28;20020;-72
2022/01/10 00:57:55;;;;;;;16.67;5.28;;;;;;;1.85;100.00;101164.03;5054042;28;20037;-71
2022/01/10 01:00:20;;;;;;;20.20;5.47;;;;;;;1.89;100.00;101168.41;5068202;28;20025;-73
2022/01/10 01:02:46;;;;;;;18.35;6.32;;;;;;;1.97;100.00;101176.22;5073280;28;20056;-72
2022/01/10 01:05:14;;;;;;;21.70;6.15;;;;;;;2.03;100.00;101163.09;5056611;28;20028;-73
2022/01/10 01:07:39;;;;;;;19.67;6.47;;;;;;;2.06;100.00;101175.28;5053300;28;20033;-75
2022/01/10 01:12:59;;;;;;;18.52;5.65;;;;;;;2.20;100.00;101175.22;5073589;28;20050;-72
2022/01/10 01:15:45;;;;;;;21.67;6.30;;;;;;;2.29;100.00;101181.28;5057837;28;20112;-72
2022/01/10 01:18:19;;;;;;;23.00;6.10;;;;;;;2.39;100.00;101189.06;5053042;28;20048;-75
2022/01/10 01:23:58;;;;;;;21.50;5.90;;;;;;;2.49;100.00;101184.66;5060053;28;20032;-71
2022/01/10 01:26:14;;;;;;;23.92;6.95;;;;;;;2.55;100.00;101180.25;5056223;28;20036;-74
2022/01/10 01:28:40;;;;;;;22.02;6.30;;;;;;;2.60;100.00;101191.56;5052960;28;20033;-74
2022/01/10 01:31:05;;;;;;;21.80;6.85;;;;;;;2.66;100.00;101181.94;5057936;28;20032;-73
2022/01/10 01:33:30;;;;;;;18.23;6.57;;;;;;;2.63;100.00;101188.06;5072870;28;20036;-73
2022/01/10 01:35:56;;;;;;;21.95;6.47;;;;;;;2.61;100.00;101185.47;5063551;28;20108;-72
2022/01/10 01:38:21;;;;;;;18.48;5.82;;;;;;;2.57;100.00;101195.94;5052730;28;20041;-74
2022/01/10 01:40:55;;;;;;;14.55;5.75;;;;;;;2.52;100.00;101210.78;5052516;28;20037;-72
2022/01/10 01:43:20;;;;;;;15.73;5.45;;;;;;;2.44;100.00;101213.44;5070974;28;20401;-73
2022/01/10 01:45:49;;;;;;;14.77;5.82;;;;;;;2.36;100.00;101210.84;5068263;28;20035;-73
2022/01/10 01:48:15;;;;;;;21.10;6.30;;;;;;;2.33;100.00;101225.69;5052594;28;20434;-72
2022/01/10 01:50:41;;;;;;;17.92;7.03;;;;;;;2.37;100.00;101219.59;5051654;28;20021;-75
2022/01/10 01:53:07;;;;;;;25.23;7.43;;;;;;;2.40;100.00;101222.19;5063062;28;20051;-72
2022/01/10 01:55:33;;;;;;;21.98;7.60;;;;;;;2.49;100.00;101235.19;5071568;28;20120;-72
2022/01/10 01:57:59;;;;;;;22.27;6.65;;;;;;;2.55;100.00;101245.63;5053174;28;20431;-71
2022/01/10 02:00:25;;;;;;;20.35;7.03;;;;;;;2.56;100.00;101246.50;5052637;28;20116;-71
2022/01/10 02:02:52;;;;;;;23.42;6.93;;;;;;;2.54;100.00;101254.34;5055826;28;20024;-72
2022/01/10 02:05:18;;;;;;;20.75;6.82;;;;;;;2.54;100.00;101261.31;5072187;28;20036;-74
2022/01/10 02:07:43;;;;;;;18.05;7.25;;;;;;;2.49;100.00;101263.09;5068415;28;20048;-72
2022/01/10 02:10:09;;;;;;;18.33;7.43;;;;;;;2.40;100.00;101256.16;5072331;28;20021;-76
2022/01/10 02:12:34;;;;;;;23.40;7.60;;;;;;;2.38;100.00;101263.13;5072763;28;20032;-75
2022/01/10 02:15:00;;;;;;;18.38;7.80;;;;;;;2.32;100.00;101266.63;5070814;28;20041;-76
2022/01/10 02:17:34;;;;;;;20.83;7.43;;;;;;;2.24;100.00;101279.75;5062501;28;20033;-75
2022/01/10 02:20:04;;;;;;;22.40;7.53;;;;;;;2.22;100.00;101278.84;5052194;28;20025;-75
2022/01/10 02:22:29;;;;;;;22.80;8.30;;;;;;;2.21;100.00;101274.53;5051967;28;20075;-72
2022/01/10 02:24:55;;;;;;;24.60;8.18;;;;;;;2.24;100.00;101291.94;5061697;28;20036;-74
2022/01/10 02:27:22;;;;;;;20.95;8.05;;;;;;;2.23;100.00;101291.06;5069119;28;20025;-72
2022/01/10 02:29:48;;;;;;;20.00;8.55;;;;;;;2.23;100.00;101290.19;5058915;28;20032;-74
2022/01/10 02:32:13;;;;;;;20.80;8.90;;;;;;;2.18;100.00;101290.19;5072195;28;20376;-72
2022/01/10 02:34:38;;;;;;;24.30;8.48;;;;;;;2.15;100.00;101303.28;5071657;28;20372;-72
2022/01/10 02:37:04;;;;;;;22.15;8.68;;;;;;;2.25;100.00;101317.19;5071939;28;20032;-74
2022/01/10 02:39:29;;;;;;;23.15;9.13;;;;;;;2.31;100.00;101313.69;5071514;28;20112;-70
2022/01/10 02:41:55;;;;;;;24.65;8.85;;;;;;;2.33;100.00;101325.00;5071899;28;20553;-73
2022/01/10 02:44:20;;;;;;;22.95;9.10;;;;;;;2.35;100.00;101331.09;5072233;28;20024;-73
2022/01/10 02:46:46;;;;;;;26.40;9.20;;;;;;;2.34;100.00;101327.63;5071668;28;20103;-73
2022/01/10 02:49:29;;;;;;;19.58;8.55;;;;;;;2.35;100.00;101326.72;5071544;28;20507;-75
2022/01/10 02:51:57;;;;;;;24.85;9.43;;;;;;;2.35;100.00;101339.78;5071277;28;20107;-72
2022/01/10 02:54:24;;;;;;;24.90;9.40;;;;;;;2.36;100.00;101338.06;5063962;28;20349;-72
2022/01/10 02:56:52;;;;;;;25.85;9.63;;;;;;;2.32;100.00;101341.56;5061297;28;20086;-74
2022/01/10 02:59:18;;;;;;;22.65;9.75;;;;;;;2.31;100.00;101360.75;5071286;28;20053;-74
2022/01/10 03:01:44;;;;;;;20.33;9.98;;;;;;;2.34;100.00;101351.16;5072962;28;20025;-75
2022/01/10 03:04:10;;;;;;;23.95;9.73;;;;;;;2.39;100.00;101351.13;5075282;28;20029;-75
2022/01/10 03:06:36;;;;;;;20.35;9.57;;;;;;;2.36;100.00;101356.38;5075294;28;20042;-74
2022/01/10 03:09:05;;;;;;;22.95;9.95;;;;;;;2.40;100.00;101368.53;5074880;28;20024;-75
2022/01/10 03:11:35;;;;;;;20.63;9.63;;;;;;;2.40;100.00;101356.34;5075497;28;20025;-72
2022/01/10 03:14:00;;;;;;;24.58;10.43;;;;;;;2.41;100.00;101367.69;5059632;28;20029;-72
2022/01/10 03:16:26;;;;;;;26.33;10.40;;;;;;;2.40;100.00;101368.53;5055198;28;20029;-74
2022/01/10 03:18:51;;;;;;;23.73;10.77;;;;;;;2.43;100.00;101368.53;5070652;28;20536;-73
2022/01/10 03:21:19;;;;;;;19.60;9.35;;;;;;;2.47;100.00;101372.91;5074601;28;20029;-76
2022/01/10 03:23:46;;;;;;;30.25;10.50;;;;;;;2.52;100.00;101383.31;5074925;28;20016;-73
2022/01/10 03:26:11;;;;;;;29.90;10.15;;;;;;;2.57;100.00;101387.69;5075095;28;20507;-73
2022/01/10 03:28:37;;;;;;;24.63;10.48;;;;;;;2.57;100.00;101392.91;5074747;28;20055;-75
2022/01/10 03:31:02;;;;;;;19.75;9.05;;;;;;;2.57;100.00;101399.88;5074156;28;20055;-74
2022/01/10 03:33:28;;;;;;;26.42;10.38;;;;;;;2.56;100.00;101411.22;5075106;28;20027;-70
2022/01/10 03:35:53;;;;;;;23.35;9.80;;;;;;;2.55;100.00;101415.56;5075044;28;20064;-74
2022/01/10 03:38:18;;;;;;;24.38;10.48;;;;;;;2.56;100.00;101412.09;5074981;28;20039;-74
2022/01/10 03:40:44;;;;;;;22.17;10.88;;;;;;;2.58;100.00;101418.19;5074016;28;20117;-74
2022/01/10 03:43:09;;;;;;;25.80;10.50;;;;;;;2.57;100.00;101421.69;5075090;28;20017;-74
2022/01/10 03:45:35;;;;;;;21.52;10.65;;;;;;;2.62;100.00;101429.50;5074944;28;20537;-73
2022/01/10 03:48:00;;;;;;;24.55;10.65;;;;;;;2.64;100.00;101432.97;5074853;28;20029;-75
2022/01/10 03:50:26;;;;;;;29.58;12.25;;;;;;;2.64;100.00;101435.59;5074620;28;20028;-73
2022/01/10 03:52:51;;;;;;;26.58;11.80;;;;;;;2.68;100.00;101441.69;5074770;28;20533;-71
2022/01/10 03:55:17;;;;;;;29.20;12.30;;;;;;;2.70;100.00;101438.19;5074307;28;20051;-74
2022/01/10 03:57:42;;;;;;;27.00;11.75;;;;;;;2.73;100.00;101442.56;5074694;28;20051;-74
2022/01/10 04:00:09;;;;;;;28.95;12.45;;;;;;;2.79;100.00;101437.31;5074105;28;20035;-74
2022/01/10 04:02:37;;;;;;;26.55;12.68;;;;;;;2.83;100.00;101436.41;5074210;28;20039;-72
2022/01/10 04:05:02;;;;;;;27.50;13.13;;;;;;;2.88;100.00;101445.13;5074840;28;20025;-75
2022/01/10 04:07:27;;;;;;;23.67;12.05;;;;;;;2.93;100.00;101434.66;5074530;28;20384;-73
2022/01/10 04:09:53;;;;;;;26.17;12.45;;;;;;;2.93;100.00;101438.13;5074089;28;20028;-72
2022/01/10 04:12:19;;;;;;;25.08;12.77;;;;;;;2.97;100.00;101448.56;5073130;28;20039;-75
2022/01/10 04:14:44;;;;;;;26.17;12.75;;;;;;;3.06;100.00;101443.31;5074065;28;20033;-75
2022/01/10 04:17:10;;;;;;;26.90;12.90;;;;;;;3.08;100.00;101454.63;5074469;28;20029;-75
2022/01/10 04:19:35;;;;;;;24.90;12.32;;;;;;;3.07;100.00;101456.41;5074370;28;20560;-74
2022/01/10 04:22:01;;;;;;;26.38;12.50;;;;;;;3.11;100.00;101458.13;5073491;28;20017;-74
2022/01/10 04:24:27;;;;;;;27.23;12.95;;;;;;;3.11;100.00;101462.50;5074173;28;20020;-72
2022/01/10 04:26:52;;;;;;;20.25;11.55;;;;;;;3.15;100.00;101461.59;5073850;28;20108;-72
2022/01/10 04:29:17;;;;;;;29.60;13.27;;;;;;;3.13;100.00;101480.81;5074305;28;20021;-76
2022/01/10 04:31:43;;;;;;;28.30;12.90;;;;;;;3.16;100.00;101492.13;5073909;28;20099;-75
2022/01/10 04:34:08;;;;;;;29.02;12.60;;;;;;;3.16;100.00;101499.97;5073408;28;20036;-73
2022/01/10 04:36:33;;;;;;;26.95;12.68;;;;;;;3.18;100.00;101492.13;5073985;28;20025;-75
2022/01/10 04:38:59;;;;;;;25.83;13.35;;;;;;;3.19;100.00;101506.94;5073852;28;20483;-73
2022/01/10 04:41:24;;;;;;;26.75;13.43;;;;;;;3.24;100.00;101505.19;5073343;28;20106;-73
2022/01/10 04:43:49;;;;;;;28.75;13.30;;;;;;;3.28;100.00;101512.16;5070502;28;20036;-72
2022/01/10 04:46:15;;;;;;;26.45;12.88;;;;;;;3.28;100.00;101526.09;5073738;28;20031;-73
2022/01/10 04:48:40;;;;;;;27.75;13.32;;;;;;;3.25;100.00;101528.72;5073555;28;20455;-74
2022/01/10 04:51:11;;;;;;;23.33;12.27;;;;;;;3.26;100.00;101530.47;5073607;28;20030;-74
2022/01/10 04:53:39;;;;;;;25.05;12.57;;;;;;;3.27;100.00;101531.34;5071338;28;20040;-71
2022/01/10 04:56:04;;;;;;;23.70;12.98;;;;;;;3.25;100.00;101536.59;5072924;28;20547;-72
2022/01/10 04:58:30;;;;;;;23.63;12.48;;;;;;;3.26;100.00;101540.94;5073617;28;20107;-72
2022/01/10 05:00:55;;;;;;;28.02;13.40;;;;;;;3.27;100.00;101557.50;5073673;28;20472;-73
2022/01/10 05:03:22;;;;;;;31.40;12.68;;;;;;;3.23;100.00;101545.31;5073446;28;20385;-75
2022/01/10 05:05:53;;;;;;;28.75;12.60;;;;;;;3.19;100.00;101554.06;5072534;28;20396;-74
2022/01/10 05:08:22;;;;;;;27.80;12.37;;;;;;;3.13;100.00;101565.41;5073146;28;20046;-75
2022/01/10 05:10:49;;;;;;;21.77;12.82;;;;;;;3.10;100.00;101568.03;5073160;28;20036;-73
2022/01/10 05:13:15;;;;;;;28.13;13.15;;;;;;;3.00;100.00;101561.94;5073147;28;20024;-74
2022/01/10 05:15:42;;;;;;;24.10;12.75;;;;;;;2.98;100.00;101562.81;5072500;28;20469;-72
2022/01/10 05:18:09;;;;;;;28.85;13.60;;;;;;;2.93;100.00;101562.84;5073034;28;20016;-73
2022/01/10 05:20:35;;;;;;;30.23;13.80;;;;;;;2.89;100.00;101568.94;5072940;28;20480;-73
2022/01/10 05:23:00;;;;;;;24.85;13.23;;;;;;;2.84;100.00;101586.38;5072996;28;20035;-73
2022/01/10 05:25:26;;;;;;;34.63;13.25;;;;;;;2.79;100.00;101584.63;5072446;28;20016;-72
2022/01/10 05:27:51;;;;;;;25.90;13.50;;;;;;;2.77;100.00;101589.00;5072481;28;20428;-75
2022/01/10 05:30:16;;;;;;;28.25;14.07;;;;;;;2.76;100.00;101589.00;5072809;28;20028;-70
2022/01/10 05:32:42;;;;;;;30.15;14.88;;;;;;;2.75;100.00;101595.09;5072682;28;20103;-72
2022/01/10 05:35:07;;;;;;;34.47;15.45;;;;;;;2.78;100.00;101597.72;5072649;28;20127;-71
2022/01/10 05:37:33;;;;;;;29.33;15.02;;;;;;;2.83;100.00;101602.97;5072236;28;20036;-75
2022/01/10 05:39:58;;;;;;;31.05;14.13;;;;;;;2.83;100.00;101608.19;5072683;28;20026;-73
2022/01/10 05:42:23;;;;;;;25.98;14.35;;;;;;;2.79;100.00;101617.78;5072152;28;20397;-72
2022/01/10 05:44:48;;;;;;;29.42;14.80;;;;;;;2.81;100.00;101623.88;5072798;28;20083;-73
2022/01/10 05:47:14;;;;;;;30.85;14.70;;;;;;;2.81;100.00;101628.25;5071918;28;20024;-74
2022/01/10 05:49:46;;;;;;;29.13;13.35;;;;;;;2.83;100.00;101626.50;5072576;28;20055;-71
2022/01/10 05:52:11;;;;;;;;;;;;;;;2.93;100.00;101646.56;5072843;28;20024;-73
2022/01/10 05:54:37;;;;;;;26.13;13.00;;;;;;;2.92;100.00;101645.66;5072737;28;20342;-73
2022/01/10 05:57:03;;;;;;;30.52;14.70;;;;;;;2.92;100.00;101645.66;5071710;28;20557;-72
2022/01/10 05:59:31;;;;;;;27.00;14.75;;;;;;;2.94;100.00;101653.50;5072527;28;20032;-70
2022/01/10 06:01:57;;;;;;;25.00;14.00;;;;;;;2.89;100.00;101648.31;5072603;28;20468;-71
2022/01/10 06:04:22;;;;;;;33.88;15.18;;;;;;;2.92;100.00;101657.91;5072346;28;20027;-74
2022/01/10 06:06:48;;;;;;;34.03;16.00;;;;;;;2.99;100.00;101661.38;5072146;28;20028;-72
2022/01/10 06:09:13;;;;;;;33.20;15.95;;;;;;;3.06;100.00;101676.22;5072143;28;20472;-72
2022/01/10 06:11:40;;;;;;;33.42;16.75;;;;;;;3.09;100.00;101676.19;5072432;28;20032;-74
2022/01/10 06:14:07;;;;;;;31.42;15.70;;;;;;;3.11;100.00;101669.22;5071944;28;20380;-73
2022/01/10 06:16:32;;;;;;;33.63;15.95;;;;;;;3.16;100.00;101667.47;5072187;28;20016;-72
2022/01/10 06:18:57;;;;;;;33.28;16.13;;;;;;;3.18;100.00;101676.19;5071418;28;20032;-73
2022/01/10 06:21:23;;;;;;;27.65;15.20;;;;;;;3.22;100.00;101690.16;5072647;28;20537;-72
2022/01/10 06:23:48;;;;;;;29.17;14.50;;;;;;;3.23;100.00;101684.91;5072235;28;20021;-72
2022/01/10 06:26:14;;;;;;;29.08;15.18;;;;;;;3.18;100.00;101694.50;5071870;28;20032;-71
2022/01/10 06:28:39;;;;;;;33.03;15.65;;;;;;;3.19;100.00;101696.25;5060622;28;20094;-73
2022/01/10 06:31:04;;;;;;;29.95;15.63;;;;;;;3.20;100.00;101699.78;5052167;28;20495;-72
2022/01/10 06:33:30;;;;;;;31.30;15.10;;;;;;;3.16;100.00;101704.13;5052333;28;20056;-72
2022/01/10 06:35:55;;;;;;;32.67;15.02;;;;;;;3.14;100.00;101715.47;5052526;28;20106;-74
2022/01/10 06:38:20;;;;;;;31.35;15.60;;;;;;;3.15;100.00;101709.38;5073796;28;20028;-72
2022/01/10 06:40:45;;;;;;;32.00;15.88;;;;;;;3.16;100.00;101719.84;5075762;28;20497;-74
2022/01/10 06:43:11;;;;;;;28.25;15.63;;;;;;;3.18;100.00;101717.22;5075799;28;20024;-73
2022/01/10 06:45:37;;;;;;;37.78;16.80;;;;;;;3.19;100.00;101724.19;5056602;28;20120;-73
2022/01/10 06:48:04;;;;;;;36.47;16.33;;;;;;;3.17;100.00;101729.44;5065358;28;20016;-75
2022/01/10 06:50:29;;;;;;;33.88;16.75;;;;;;;3.15;100.00;101736.41;5075446;28;20040;-73
2022/01/10 06:52:55;;;;;;;27.95;16.58;;;;;;;3.19;100.00;101735.53;5075994;28;20032;-74
2022/01/10 06:55:21;;;;;;;31.00;16.75;;;;;;;3.22;100.00;101746.00;5075839;28;20027;-74
2022/01/10 06:57:46;;;;;;;30.20;16.67;;;;;;;3.24;100.00;101749.47;5075118;28;20028;-73
2022/01/10 07:00:12;;;;;;;28.23;16.73;;;;;;;3.28;100.00;101764.31;5071419;28;20050;-73
2022/01/10 07:02:37;;;;;;;36.83;16.92;;;;;;;3.24;100.00;101769.56;5055332;28;20491;-73
2022/01/10 07:05:03;;;;;;;32.95;17.33;;;;;;;3.26;100.00;101760.84;5060382;28;20075;-70
2022/01/10 07:07:28;;;;;;;34.47;16.65;;;;;;;3.34;100.00;101771.31;5055454;28;20508;-74
2022/01/10 07:09:54;;;;;;;30.38;15.90;;;;;;;3.39;100.00;101780.03;5069324;28;20029;-74
2022/01/10 07:12:19;;;;;;;41.28;17.98;;;;;;;3.42;100.00;101785.25;5075314;28;20427;-74
2022/01/10 07:14:44;;;;;;;26.20;15.32;;;;;;;3.47;100.00;101794.88;5074837;28;20538;-76
2022/01/10 07:17:10;;;;;;;34.78;16.92;;;;;;;3.50;100.00;101802.72;5061706;28;20033;-72
2022/01/10 07:19:36;;;;;;;28.75;16.65;;;;;;;3.53;100.00;101806.22;5060836;28;20048;-72
2022/01/10 07:22:02;;;;;;;28.50;16.52;;;;;;;3.53;100.00;101801.00;5067505;28;20486;-75
2022/01/10 07:24:28;;;;;;;26.45;16.17;;;;;;;3.58;100.00;101822.81;5064796;28;20468;-72
2022/01/10 07:26:53;;;;;;;28.42;16.00;;;;;;;3.64;100.00;101823.69;5073892;28;20064;-70
2022/01/10 07:29:19;;;;;;;32.75;16.30;;;;;;;3.65;100.00;101828.06;5074926;28;20024;-73
2022/01/10 07:31:44;;;;;;;25.45;15.68;;;;;;;3.70;100.00;101839.41;5073645;28;20037;-75
2022/01/10 07:34:15;;;;;;;31.45;16.83;;;;;;;3.75;100.00;101837.66;5075193;28;20029;-73
2022/01/10 07:36:41;;;;;;;28.47;15.30;;;;;;;3.77;100.00;101844.66;5074125;28;20141;-76
2022/01/10 07:39:07;;;;;;;31.05;16.25;;;;;;;3.81;100.00;101858.63;5074761;28;20059;-73
2022/01/10 07:41:33;;;;;;;29.80;16.27;;;;;;;3.81;100.00;101862.97;5074087;28;20078;-72
2022/01/10 07:43:59;;;;;;;27.95;16.55;;;;;;;3.79;100.00;101865.59;5073977;28;20040;-71
2022/01/10 07:46:25;;;;;;;29.33;15.95;;;;;;;3.79;100.00;101883.94;5064851;28;20079;-74
2022/01/10 07:48:50;;;;;;;39.90;17.50;;;;;;;3.83;100.00;101883.06;5070002;28;20028;-72
2022/01/10 07:51:16;;;;;;;30.45;16.60;;;;;;;3.82;100.00;101885.69;5074779;28;20021;-70
2022/01/10 07:53:42;;;;;;;31.90;16.17;;;;;;;3.86;100.00;101887.41;5064715;28;20529;-74
2022/01/10 07:56:08;;;;;;;32.83;17.00;;;;;;;3.88;100.00;101890.94;5055077;28;20476;-68
2022/01/10 07:58:34;;;;;;;30.80;17.42;;;;;;;3.89;100.00;101897.91;5054508;28;20103;-76
2022/01/10 08:01:00;;;;;;;31.00;16.60;;;;;;;3.91;100.00;101907.53;5057283;28;20096;-72
2022/01/10 08:03:26;;;;;;;36.53;18.17;;;;;;;3.92;100.00;101901.38;5074873;28;20376;-75
2022/01/10 08:05:51;;;;;;;32.88;17.20;;;;;;;3.94;100.00;101907.53;5074708;28;20031;-76
2022/01/10 08:08:17;;;;;;;29.40;16.23;;;;;;;3.96;100.00;101919.75;5074349;28;20024;-73
2022/01/10 08:10:42;;;;;;;31.90;16.50;;;;;;;3.97;100.00;101918.88;5074081;28;20059;-76
2022/01/10 08:13:07;;;;;;;35.75;16.92;;;;;;;3.95;100.00;101926.72;5074463;28;20023;-70
2022/01/10 08:15:33;;;;;;;29.77;17.65;;;;;;;3.94;100.00;101918.00;5073733;28;20016;-76
2022/01/10 08:17:59;;;;;;;31.30;16.98;;;;;;;3.97;100.00;101918.88;5072932;28;20028;-73
2022/01/10 08:20:24;;;;;;;35.78;17.13;;;;;;;4.01;100.00;101936.34;5074402;28;20033;-75
2022/01/10 08:22:50;;;;;;;32.10;16.42;;;;;;;4.00;100.00;101945.94;5073856;28;20056;-71
2022/01/10 08:25:16;;;;;;;32.55;16.50;;;;;;;4.03;100.00;101940.72;5061613;28;20041;-76
2022/01/10 08:27:41;;;;;;;31.98;17.00;;;;;;;4.08;100.00;101945.97;5053881;28;20104;-74
2022/01/10 08:30:07;;;;;;;31.33;17.55;;;;;;;4.07;100.00;101947.69;5053871;28;20044;-74
2022/01/10 08:32:33;;;;;;;33.67;17.50;;;;;;;4.10;100.00;101958.22;5053833;28;20083;-72
2022/01/10 08:34:58;;;;;;;34.22;17.80;;;;;;;4.13;100.00;101953.81;5073659;28;20025;-75
2022/01/10 08:37:24;;;;;;;33.42;17.45;;;;;;;4.12;100.00;101966.06;5073038;28;20077;-75
2022/01/10 08:39:51;;;;;;;27.70;17.05;;;;;;;4.16;100.00;101969.56;5072889;28;20024;-75
2022/01/10 08:42:18;;;;;;;31.70;17.92;;;;;;;4.16;100.00;101967.81;5067254;28;20044;-77
2022/01/10 08:44:43;;;;;;;30.55;17.35;;;;;;;4.20;100.00;101971.31;5073412;28;20029;-77
2022/01/10 08:47:09;;;;;;;31.80;16.63;;;;;;;4.23;100.00;101982.69;5071756;28;20392;-71
2022/01/10 08:49:34;;;;;;;31.50;16.88;;;;;;;4.24;100.00;101973.91;5068727;28;20033;-77
2022/01/10 08:52:00;;;;;;;35.63;17.88;;;;;;;4.28;100.00;101980.03;5072082;28;20043;-76
2022/01/10 08:54:25;;;;;;;34.47;17.13;;;;;;;4.32;100.00;101986.16;5073492;28;20071;-77
2022/01/10 08:56:52;;;;;;;29.48;17.15;;;;;;;4.38;100.00;101987.03;5084916;28;20029;-78
2022/01/10 08:59:18;;;;;;;30.90;16.90;;;;;;;4.41;100.00;101984.41;5072512;28;20031;-76
2022/01/10 09:01:46;;;;;;;30.08;16.83;;;;;;;4.52;100.00;102000.13;5073416;28;20031;-78
2022/01/10 09:04:16;;;;;;;32.78;17.05;;;;;;;4.58;100.00;102000.13;5072291;28;20039;-77
2022/01/10 09:06:43;;;;;;;26.63;15.73;;;;;;;4.68;100.00;102005.34;5073159;28;20024;-74
2022/01/10 09:09:09;;;;;;;27.98;16.80;;;;;;;4.66;100.00;102001.88;5073352;28;20020;-69
2022/01/10 09:11:35;;;;;;;28.65;16.23;;;;;;;4.70;100.00;102003.63;5073494;28;20492;-75
2022/01/10 09:14:00;;;;;;;31.60;16.92;;;;;;;4.73;100.00;102014.97;5080147;28;20477;-73
2022/01/10 09:16:25;;;;;;;28.67;16.23;;;;;;;4.74;100.00;102021.09;5073244;28;20074;-75
2022/01/10 09:18:51;;;;;;;26.75;15.43;;;;;;;4.76;100.00;102019.34;5073103;28;20021;-77
2022/01/10 09:21:16;;;;;;;27.75;16.40;;;;;;;4.80;100.00;102021.09;5071975;28;20077;-74
2022/01/10 09:23:41;;;;;;;34.85;16.15;;;;;;;4.87;100.00;102025.47;5067678;28;20092;-77
2022/01/10 09:26:07;;;;;;;28.85;14.95;;;;;;;4.93;100.00;102027.19;5072394;28;20641;-77
2022/01/10 09:28:32;;;;;;;26.83;14.88;;;;;;;4.99;100.00;102027.16;5070787;28;20044;-71
2022/01/10 09:30:57;;;;;;;29.30;15.30;;;;;;;5.01;100.00;102028.06;5067655;28;20029;-75
2022/01/10 09:33:23;;;;;;;29.17;15.60;;;;;;;5.07;99.68;102042.91;5072331;28;20024;-77
2022/01/10 09:35:48;;;;;;;27.75;15.30;;;;;;;5.06;99.99;102052.53;5073035;28;20039;-76
2022/01/10 09:38:15;;;;;;;28.33;15.75;;;;;;;5.11;100.00;102052.50;5072710;28;20230;-76
2022/01/10 09:40:40;;;;;;;25.40;14.85;;;;;;;5.15;99.39;102059.50;5071013;28;20133;-74
2022/01/10 09:43:05;;;;;;;24.98;14.93;;;;;;;5.17;99.03;102055.13;5072498;28;20391;-77
2022/01/10 09:45:31;;;;;;;31.05;15.07;;;;;;;5.23;99.34;102063.00;5071244;28;20445;-75
2022/01/10 09:47:57;;;;;;;28.92;14.98;;;;;;;5.28;98.59;102057.75;5073126;28;20039;-76
2022/01/10 09:50:22;;;;;;;25.95;14.70;;;;;;;5.35;98.37;102069.97;5070983;28;20472;-76
2022/01/10 09:52:50;;;;;;;32.88;15.48;;;;;;;5.39;98.18;102070.81;5072462;28;20107;-76
2022/01/10 09:55:16;;;;;;;29.85;14.30;;;;;;;5.48;96.93;102083.91;5072499;28;20028;-76
2022/01/10 09:57:42;;;;;;;26.30;14.23;;;;;;;5.52;96.24;102088.28;5072458;28;20035;-77
2022/01/10 10:00:09;;;;;;;25.30;13.48;;;;;;;5.57;97.15;102093.53;5071499;28;20044;-74
2022/01/10 10:02:40;;;;;;;26.23;13.98;;;;;;;5.58;95.69;102098.78;5070776;28;20036;-73
2022/01/10 10:05:08;;;;;;;26.70;13.18;;;;;;;5.63;96.18;102093.50;5071015;28;20060;-73
2022/01/10 10:07:36;;;;;;;26.27;12.82;;;;;;;5.74;95.33;102101.34;5072260;28;20040;-73
2022/01/10 10:10:07;;;;;;;27.45;13.00;;;;;;;5.81;94.14;102110.09;5054800;28;20498;-73
2022/01/10 10:12:33;;;;;;;27.42;13.10;;;;;;;5.74;94.50;102114.47;5064372;28;20017;-75
2022/01/10 10:15:00;;;;;;;27.73;13.40;;;;;;;5.78;94.81;102128.47;5070186;28;20020;-70
2022/01/10 10:17:28;;;;;;;26.08;12.50;;;;;;;5.85;94.54;102125.81;5072197;28;20093;-75
2022/01/10 10:19:53;;;;;;;21.52;12.02;;;;;;;5.87;94.22;102136.31;5071845;28;20471;-74
2022/01/10 10:22:20;;;;;;;28.25;13.52;;;;;;;5.83;93.81;102139.84;5072028;28;20055;-75
2022/01/10 10:24:48;;;;;;;25.92;12.95;;;;;;;5.85;94.43;102141.59;5070878;28;20483;-73
2022/01/10 10:27:20;;;;;;;21.45;12.20;;;;;;;5.81;95.01;102152.16;5058724;28;20031;-74
2022/01/10 10:29:46;;;;;;;24.35;13.02;;;;;;;5.84;94.87;102158.25;5072139;28;20021;-74
2022/01/10 10:32:15;;;;;;;27.15;13.52;;;;;;;5.90;94.89;102152.97;5072345;28;20079;-75
2022/01/10 10:34:41;;;;;;;29.00;13.48;;;;;;;6.00;94.55;102164.34;5072088;28;20468;-71
2022/01/10 10:37:12;;;;;;;27.05;13.38;;;;;;;6.06;94.79;102155.56;5068626;28;20029;-74
2022/01/10 10:39:40;;;;;;;24.20;12.52;;;;;;;6.09;94.51;102163.44;5058473;28;20039;-76
2022/01/10 10:42:08;;;;;;;25.60;12.93;;;;;;;6.13;94.08;102159.91;5071244;28;20276;-75
2022/01/10 10:44:33;;;;;;;29.33;13.20;;;;;;;6.16;93.85;102167.78;5068228;28;20020;-75
2022/01/10 10:47:00;;;;;;;24.33;12.35;;;;;;;6.18;93.39;102168.66;5054974;28;20468;-75
2022/01/10 10:49:34;;;;;;;26.90;12.65;;;;;;;6.12;93.25;102173.94;5065492;28;20041;-71
2022/01/10 10:52:02;;;;;;;24.60;13.25;;;;;;;6.10;93.43;102178.34;5071462;28;20106;-73
2022/01/10 10:54:31;;;;;;;24.60;12.63;;;;;;;6.07;93.39;102194.13;5071785;28;20048;-77
2022/01/10 10:56:58;;;;;;;27.00;12.30;;;;;;;6.05;93.84;102194.13;5071737;28;20103;-74
2022/01/10 10:59:28;;;;;;;23.23;11.85;;;;;;;6.04;93.51;102191.53;5064182;28;20488;-76
2022/01/10 11:01:55;;;;;;;21.55;11.30;;;;;;;6.02;93.53;102199.44;5069809;28;20025;-75
2022/01/10 11:04:20;;;;;;;25.73;11.60;;;;;;;6.00;93.68;102198.53;5072048;28;20025;-76
2022/01/10 11:06:46;;;;;;;18.15;10.63;;;;;;;5.99;93.98;102204.69;5071254;28;20059;-75
2022/01/10 11:09:13;;;;;;;22.75;11.18;;;;;;;6.01;93.38;102212.56;5063362;28;20029;-72
2022/01/10 11:11:40;;;;;;;23.08;10.48;;;;;;;5.98;93.79;102213.44;5061398;28;20044;-73
2022/01/10 11:14:08;;;;;;;21.92;10.82;;;;;;;5.90;93.47;102216.06;5051798;28;20468;-74